createdAt,value
2023-05-09T00:02:11.376Z,101853.03
2023-05-09T00:04:38.304Z,101842.06
2023-05-09T00:07:05.076Z,101843.78
2023-05-09T00:09:31.816Z,101842.75
2023-05-09T00:11:59.822Z,101844.34
2023-05-09T00:14:26.568Z,101835.00
2023-05-09T00:16:53.302Z,101832.66
2023-05-09T00:19:20.183Z,101831.19
2023-05-09T00:21:46.895Z,101839.47
2023-05-09T00:24:13.557Z,101826.81
2023-05-09T00:26:40.252Z,101825.66
2023-05-09T00:29:08.340Z,101817.66
2023-05-09T00:31:35.061Z,101824.06
2023-05-09T00:34:02.228Z,101815.84
2023-05-09T00:36:28.926Z,101813.25
2023-05-09T00:38:55.616Z,101814.22
2023-05-09T00:41:22.362Z,101808.03
2023-05-09T00:43:49.034Z,101806.97
2023-05-09T00:46:17.248Z,101801.06
2023-05-09T00:48:44.176Z,101804.78
2023-05-09T00:51:10.870Z,101810.91
2023-05-09T00:53:38.066Z,101806.97
2023-05-09T00:56:05.555Z,101802.78
2023-05-09T00:58:32.441Z,101809.56
2023-05-09T01:00:59.182Z,101787.53
2023-05-09T01:03:27.561Z,101798.56
2023-05-09T01:06:01.964Z,101798.66
2023-05-09T01:08:41.354Z,101793.22
2023-05-09T01:11:12.981Z,101795.81
2023-05-09T01:13:49.687Z,101778.91
2023-05-09T01:16:23.633Z,101786.34
2023-05-09T01:19:01.029Z,101775.88
2023-05-09T01:21:30.349Z,101780.47
2023-05-09T01:24:07.899Z,101780.38
2023-05-09T01:26:44.468Z,101775.78
2023-05-09T01:29:31.653Z,101772.50
2023-05-09T01:31:58.769Z,101776.59
2023-05-09T01:34:28.476Z,101768.56
2023-05-09T01:36:58.568Z,101765.91
2023-05-09T01:39:27.071Z,101763.16
2023-05-09T01:41:56.634Z,101759.53
2023-05-09T01:44:26.792Z,101756.00
2023-05-09T01:46:54.770Z,101752.25
2023-05-09T01:49:22.986Z,101755.69
2023-05-09T01:51:50.840Z,101749.59
2023-05-09T01:54:18.713Z,101748.53
2023-05-09T01:56:47.324Z,101738.81
2023-05-09T01:59:16.076Z,101741.94
2023-05-09T02:01:45.151Z,101738.72
2023-05-09T02:04:14.008Z,101728.81
2023-05-09T02:06:41.680Z,101731.28
2023-05-09T02:09:09.044Z,101733.41
2023-05-09T02:11:35.745Z,101727.59
2023-05-09T02:14:02.601Z,101722.47
2023-05-09T02:16:29.609Z,101730.94
2023-05-09T02:18:57.691Z,101727.63
2023-05-09T02:21:24.725Z,101724.00
2023-05-09T02:23:51.502Z,101727.41
2023-05-09T02:26:18.923Z,101721.84
2023-05-09T02:28:47.070Z,101716.50
2023-05-09T02:31:16.915Z,101719.31
2023-05-09T02:33:45.399Z,101713.94
2023-05-09T02:36:14.603Z,101705.16
2023-05-09T02:38:42.492Z,101699.81
2023-05-09T02:41:12.868Z,101700.81
2023-05-09T02:43:39.599Z,101701.66
2023-05-09T02:46:07.470Z,101696.31
2023-05-09T02:48:34.230Z,101703.25
2023-05-09T02:51:01.024Z,101698.78
2023-05-09T02:53:29.262Z,101691.50
2023-05-09T02:55:55.965Z,101692.34
2023-05-09T02:58:22.773Z,101684.97
2023-05-09T03:00:49.504Z,101688.94
2023-05-09T03:03:16.741Z,101687.00
2023-05-09T03:05:43.800Z,101684.22
2023-05-09T03:08:10.485Z,101678.75
2023-05-09T03:10:38.607Z,101672.66
2023-05-09T03:13:05.356Z,101667.41
2023-05-09T03:15:32.548Z,101660.25
2023-05-09T03:18:00.248Z,101660.16
2023-05-09T03:20:27.050Z,101661.19
2023-05-09T03:22:53.908Z,101657.88
2023-05-09T03:25:21.169Z,101658.75
2023-05-09T03:27:49.587Z,101654.25
2023-05-09T03:30:16.422Z,101658.53
2023-05-09T03:32:45.626Z,101649.56
2023-05-09T03:35:12.597Z,101646.13
2023-05-09T03:37:39.706Z,101639.28
2023-05-09T03:40:08.724Z,101642.91
2023-05-09T03:42:41.624Z,101631.38
2023-05-09T03:45:11.257Z,101634.81
2023-05-09T03:47:38.183Z,101633.72
2023-05-09T03:50:06.979Z,101627.75
2023-05-09T03:52:35.012Z,101623.13
2023-05-09T03:55:02.205Z,101615.31
2023-05-09T03:57:32.983Z,101611.81
2023-05-09T04:00:00.439Z,101608.94
2023-05-09T04:02:28.632Z,101612.56
2023-05-09T04:04:55.643Z,101609.75
2023-05-09T04:07:23.231Z,101614.28
2023-05-09T04:09:49.991Z,101603.44
2023-05-09T04:12:16.702Z,101601.84
2023-05-09T04:14:45.139Z,101601.63
2023-05-09T04:17:12.942Z,101592.66
2023-05-09T04:19:41.270Z,101595.34
2023-05-09T04:22:08.101Z,101591.81
2023-05-09T04:24:34.833Z,101585.59
2023-05-09T04:27:02.042Z,101588.50
2023-05-09T04:29:28.752Z,101585.69
2023-05-09T04:31:56.531Z,101589.44
2023-05-09T04:34:25.695Z,101581.19
2023-05-09T04:36:54.329Z,101583.44
2023-05-09T04:39:21.734Z,101577.34
2023-05-09T04:42:00.847Z,101585.16
2023-05-09T04:44:27.759Z,101584.19
2023-05-09T04:46:55.043Z,101576.25
2023-05-09T04:49:21.770Z,101570.06
2023-05-09T04:51:48.577Z,101569.88
2023-05-09T04:54:16.964Z,101565.25
2023-05-09T04:56:44.483Z,101558.09
2023-05-09T04:59:11.569Z,101563.19
2023-05-09T05:01:39.124Z,101551.31
2023-05-09T05:04:05.899Z,101550.22
2023-05-09T05:06:33.461Z,101551.72
2023-05-09T05:09:00.633Z,101552.56
2023-05-09T05:11:29.358Z,101547.97
2023-05-09T05:13:56.183Z,101544.19
2023-05-09T05:16:23.461Z,101538.63
2023-05-09T05:18:50.308Z,101535.84
2023-05-09T05:21:18.896Z,101531.00
2023-05-09T05:23:45.766Z,101530.44
2023-05-09T05:26:13.837Z,101520.13
2023-05-09T05:28:41.915Z,101521.25
2023-05-09T05:31:08.833Z,101514.69
2023-05-09T05:33:35.830Z,101519.28
2023-05-09T05:36:03.687Z,101519.28
2023-05-09T05:38:30.469Z,101521.88
2023-05-09T05:40:58.829Z,101510.53
2023-05-09T05:43:27.710Z,101509.91
2023-05-09T05:45:56.166Z,101512.47
2023-05-09T05:48:25.038Z,101514.06
2023-05-09T05:50:53.502Z,101510.03
2023-05-09T05:53:23.943Z,101508.31
2023-05-09T05:55:51.478Z,101510.28
2023-05-09T05:58:18.215Z,101500.63
2023-05-09T06:00:45.103Z,101506.13
2023-05-09T06:03:13.221Z,101497.94
2023-05-09T06:06:06.228Z,101504.06
2023-05-09T06:08:32.926Z,101499.44
2023-05-09T06:11:01.241Z,101497.84
2023-05-09T06:13:28.515Z,101495.03
2023-05-09T06:16:15.071Z,101483.84
2023-05-09T06:18:47.012Z,101487.16
2023-05-09T06:21:13.767Z,101491.63
2023-05-09T06:23:44.758Z,101487.16
2023-05-09T06:26:17.701Z,101483.31
2023-05-09T06:28:44.432Z,101480.88
2023-05-09T06:31:11.218Z,101483.31
2023-05-09T06:33:38.026Z,101473.25
2023-05-09T06:36:06.468Z,101476.06
2023-05-09T06:38:34.144Z,101461.09
2023-05-09T06:41:01.049Z,101469.75
2023-05-09T06:43:27.821Z,101454.13
2023-05-09T06:45:54.605Z,101459.47
2023-05-09T06:48:21.394Z,101457.16
2023-05-09T06:50:48.313Z,101451.91
2023-05-09T06:53:16.892Z,101444.03
2023-05-09T06:55:44.122Z,101445.94
2023-05-09T06:58:11.063Z,101440.72
2023-05-09T07:00:37.964Z,101437.09
2023-05-09T07:03:04.911Z,101430.13
2023-05-09T07:05:31.668Z,101438.91
2023-05-09T07:07:58.459Z,101427.34
2023-05-09T07:10:26.740Z,101427.34
2023-05-09T07:12:53.547Z,101420.50
2023-05-09T07:15:32.483Z,101425.63
2023-05-09T07:18:07.232Z,101418.47
2023-05-09T07:20:33.958Z,101414.69
2023-05-09T07:23:00.769Z,101403.59
2023-05-09T07:25:28.865Z,101412.22
2023-05-09T07:27:55.566Z,101408.19
2023-05-09T07:30:22.741Z,101407.44
2023-05-09T07:32:49.490Z,101412.44
2023-05-09T07:35:16.376Z,101418.41
2023-05-09T07:37:43.344Z,101410.28
2023-05-09T07:40:10.796Z,101413.06
2023-05-09T07:42:38.883Z,101403.44
2023-05-09T07:45:06.836Z,101411.25
2023-05-09T07:47:34.043Z,101404.31
2023-05-09T07:50:00.743Z,101405.63
2023-05-09T07:52:27.468Z,101397.47
2023-05-09T07:54:54.119Z,101382.13
2023-05-09T07:57:20.808Z,101390.69
2023-05-09T07:59:49.132Z,101386.16
2023-05-09T08:02:15.886Z,101372.91
2023-05-09T08:04:42.602Z,101379.97
2023-05-09T08:07:09.302Z,101379.00
2023-05-09T08:09:36.183Z,101371.59
2023-05-09T08:12:02.967Z,101362.84
2023-05-09T08:14:29.670Z,101360.56
2023-05-09T08:16:57.812Z,101362.47
2023-05-09T08:19:24.626Z,101361.41
2023-05-09T08:21:51.330Z,101361.28
2023-05-09T08:24:18.032Z,101352.28
2023-05-09T08:26:44.757Z,101355.22
2023-05-09T08:29:11.511Z,101355.50
2023-05-09T08:31:38.630Z,101338.34
2023-05-09T08:34:07.126Z,101333.47
2023-05-09T08:36:33.909Z,101334.34
2023-05-09T08:39:00.980Z,101338.44
2023-05-09T08:41:27.818Z,101331.19
2023-05-09T08:43:56.571Z,101324.34
2023-05-09T08:46:27.864Z,101322.41
2023-05-09T08:48:55.142Z,101310.97
2023-05-09T08:51:23.831Z,101330.94
2023-05-09T08:53:50.975Z,101326.09
2023-05-09T08:56:18.468Z,101319.25
2023-05-09T08:58:45.771Z,101317.19
2023-05-09T09:01:13.907Z,101322.94
2023-05-09T09:03:41.692Z,101312.09
2023-05-09T09:06:09.727Z,101305.28
2023-05-09T09:08:38.124Z,101310.41
2023-05-09T09:11:04.989Z,101299.19
2023-05-09T09:13:34.924Z,101301.63
2023-05-09T09:16:02.136Z,101300.44
2023-05-09T09:18:30.327Z,101297.38
2023-05-09T09:21:00.984Z,101299.81
2023-05-09T09:23:30.477Z,101295.69
2023-05-09T09:26:00.026Z,101295.69
2023-05-09T09:28:27.148Z,101291.19
2023-05-09T09:30:53.991Z,101295.56
2023-05-09T09:33:21.219Z,101287.63
2023-05-09T09:35:49.105Z,101284.25
2023-05-09T09:38:17.239Z,101285.44
2023-05-09T09:40:49.241Z,101282.50
2023-05-09T09:43:17.407Z,101274.47
2023-05-09T09:45:44.239Z,101281.44
2023-05-09T09:48:11.021Z,101281.53
2023-05-09T09:50:37.983Z,101280.44
2023-05-09T09:53:04.738Z,101269.16
2023-05-09T09:55:32.053Z,101271.72
2023-05-09T09:57:58.767Z,101273.28
2023-05-09T10:00:28.291Z,101270.00
2023-05-09T10:02:56.278Z,101257.84
2023-05-09T10:05:24.652Z,101258.31
2023-05-09T10:07:54.553Z,101259.06
2023-05-09T10:10:21.600Z,101256.59
2023-05-09T10:12:50.286Z,101259.91
2023-05-09T10:15:17.888Z,101262.94
2023-05-09T10:17:46.267Z,101264.03
2023-05-09T10:20:13.917Z,101257.47
2023-05-09T10:22:41.762Z,101253.81
2023-05-09T10:25:14.998Z,101261.38
2023-05-09T10:27:46.300Z,101256.03
2023-05-09T10:30:17.079Z,101250.78
2023-05-09T10:32:54.786Z,101247.13
2023-05-09T10:35:27.995Z,101249.34
2023-05-09T10:37:56.192Z,101253.94
2023-05-09T10:40:23.538Z,101239.34
2023-05-09T10:42:50.929Z,101228.91
2023-05-09T10:45:17.994Z,101236.31
2023-05-09T10:47:45.939Z,101221.00
2023-05-09T10:50:16.278Z,101226.97
2023-05-09T10:53:16.237Z,101226.81
2023-05-09T10:55:50.364Z,101218.31
2023-05-09T10:58:28.014Z,101222.53
2023-05-09T11:00:57.288Z,101211.47
2023-05-09T11:03:25.553Z,101225.09
2023-05-09T11:05:56.269Z,101213.03
2023-05-09T11:08:25.267Z,101202.22
2023-05-09T11:10:52.866Z,101199.44
2023-05-09T11:13:20.905Z,101198.84
2023-05-09T11:16:03.379Z,101192.63
2023-05-09T11:18:30.787Z,101200.50
2023-05-09T11:20:59.880Z,101191.78
2023-05-09T11:23:27.618Z,101184.34
2023-05-09T11:26:05.043Z,101190.19
2023-05-09T11:28:35.606Z,101187.88
2023-05-09T11:31:12.843Z,101175.00
2023-05-09T11:33:40.572Z,101187.88
2023-05-09T11:36:19.749Z,101192.00
2023-05-09T11:38:47.534Z,101180.06
2023-05-09T11:41:14.340Z,101171.41
2023-05-09T11:43:43.310Z,101180.81
2023-05-09T11:46:10.177Z,101171.56
2023-05-09T11:48:40.800Z,101165.50
2023-05-09T11:51:07.690Z,101172.16
2023-05-09T11:53:40.594Z,101177.38
2023-05-09T11:56:07.536Z,101159.75
2023-05-09T11:58:38.676Z,101162.69
2023-05-09T12:01:05.663Z,101155.25
2023-05-09T12:03:32.559Z,101151.50
2023-05-09T12:05:59.495Z,101157.13
2023-05-09T12:08:26.165Z,101153.69
2023-05-09T12:10:54.331Z,101148.94
2023-05-09T12:13:21.097Z,101144.78
2023-05-09T12:15:47.922Z,101146.00
2023-05-09T12:18:14.817Z,101145.53
2023-05-09T12:20:43.184Z,101143.56
2023-05-09T12:23:10.668Z,101137.72
2023-05-09T12:25:37.426Z,101133.00
2023-05-09T12:28:06.049Z,101133.78
2023-05-09T12:30:33.088Z,101127.97
2023-05-09T12:33:00.316Z,101121.44
2023-05-09T12:35:27.797Z,101129.19
2023-05-09T12:37:57.412Z,101128.41
2023-05-09T12:40:24.857Z,101124.28
2023-05-09T12:42:51.669Z,101119.53
2023-05-09T12:45:20.288Z,101116.59
2023-05-09T12:47:51.746Z,101115.25
2023-05-09T12:50:19.089Z,101102.59
2023-05-09T12:53:02.171Z,101111.09
2023-05-09T12:55:30.940Z,101109.84
2023-05-09T12:57:59.421Z,101104.28
2023-05-09T13:00:27.705Z,101102.06
2023-05-09T13:02:54.845Z,101104.28
2023-05-09T13:05:23.283Z,101092.16
2023-05-09T13:07:51.690Z,101099.22
2023-05-09T13:10:20.110Z,101097.78
2023-05-09T13:12:47.356Z,101100.47
2023-05-09T13:15:15.086Z,101093.16
2023-05-09T13:17:43.545Z,101097.06
2023-05-09T13:20:10.396Z,101091.59
2023-05-09T13:22:37.506Z,101094.28
2023-05-09T13:25:04.885Z,101087.59
2023-05-09T13:27:32.380Z,101083.31
2023-05-09T13:29:59.296Z,101078.03
2023-05-09T13:32:26.096Z,101076.50
2023-05-09T13:34:54.218Z,101082.66
2023-05-09T13:37:21.436Z,101069.88
2023-05-09T13:39:48.343Z,101063.06
2023-05-09T13:42:16.756Z,101070.31
2023-05-09T13:44:44.331Z,101064.50
2023-05-09T13:47:11.463Z,101069.78
2023-05-09T13:49:38.667Z,101062.97
2023-05-09T13:52:10.332Z,101067.25
2023-05-09T13:54:37.110Z,101067.72
2023-05-09T13:57:05.023Z,101061.66
2023-05-09T13:59:32.103Z,101060.06
2023-05-09T14:01:59.229Z,101053.63
2023-05-09T14:04:26.401Z,101044.63
2023-05-09T14:06:53.150Z,101050.84
2023-05-09T14:09:22.160Z,101039.72
2023-05-09T14:11:49.022Z,101046.28
2023-05-09T14:14:15.693Z,101038.00
2023-05-09T14:16:42.395Z,101039.59
2023-05-09T14:19:09.281Z,101036.00
2023-05-09T14:21:36.034Z,101030.69
2023-05-09T14:24:02.912Z,101024.75
2023-05-09T14:26:31.011Z,101015.41
2023-05-09T14:28:57.767Z,101015.16
2023-05-09T14:31:24.599Z,101012.00
2023-05-09T14:33:51.399Z,101021.91
2023-05-09T14:36:18.170Z,101007.53
2023-05-09T14:38:44.912Z,101002.72
2023-05-09T14:41:11.822Z,101005.22
2023-05-09T14:43:39.961Z,101012.28
2023-05-09T14:46:06.712Z,101004.34
2023-05-09T14:48:33.648Z,101008.69
2023-05-09T14:51:00.584Z,101000.38
2023-05-09T14:53:27.952Z,100994.75
2023-05-09T14:55:54.833Z,100988.25
2023-05-09T14:58:21.775Z,100997.13
2023-05-09T15:00:50.332Z,100978.31
2023-05-09T15:03:17.063Z,100987.34
2023-05-09T15:05:44.689Z,100981.72
2023-05-09T15:08:11.476Z,100993.47
2023-05-09T15:13:22.557Z,100977.94
2023-05-09T15:15:52.186Z,100979.81
2023-05-09T15:18:18.948Z,100974.75
2023-05-09T15:20:47.185Z,100971.00
2023-05-09T15:23:14.082Z,100964.69
2023-05-09T15:25:42.665Z,100970.25
2023-05-09T15:28:09.450Z,100967.31
2023-05-09T15:30:38.205Z,100961.56
2023-05-09T15:33:06.967Z,100966.31
2023-05-09T15:35:34.096Z,100961.78
2023-05-09T15:38:00.839Z,100956.09
2023-05-09T15:40:27.764Z,100960.47
2023-05-09T15:42:54.503Z,100955.09
2023-05-09T15:45:21.252Z,100955.56
2023-05-09T15:47:47.988Z,100958.41
2023-05-09T15:50:16.858Z,100946.16
2023-05-09T15:52:43.807Z,100946.41
2023-05-09T15:55:11.413Z,100953.31
2023-05-09T15:57:38.497Z,100934.13
2023-05-09T16:00:06.547Z,100949.19
2023-05-09T16:02:39.260Z,100942.31
2023-05-09T16:05:06.745Z,100934.44
2023-05-09T16:07:35.892Z,100935.53
2023-05-09T16:10:03.050Z,100930.28
2023-05-09T16:12:29.879Z,100924.50
2023-05-09T16:14:56.716Z,100930.19
2023-05-09T16:17:23.587Z,100918.06
2023-05-09T16:19:50.274Z,100920.81
2023-05-09T16:22:16.961Z,100919.91
2023-05-09T16:24:45.110Z,100916.75
2023-05-09T16:27:12.811Z,100919.56
2023-05-09T16:29:39.509Z,100916.56
2023-05-09T16:32:07.015Z,100914.16
2023-05-09T16:34:33.724Z,100916.72
2023-05-09T16:37:00.434Z,100913.03
2023-05-09T16:39:27.273Z,100906.97
2023-05-09T16:41:55.619Z,100905.47
2023-05-09T16:44:22.998Z,100892.34
2023-05-09T16:46:49.662Z,100893.19
2023-05-09T16:49:16.337Z,100898.41
2023-05-09T16:51:43.382Z,100904.19
2023-05-09T16:54:10.441Z,100895.66
2023-05-09T16:56:37.518Z,100897.75
2023-05-09T16:59:05.639Z,100904.75
2023-05-09T17:01:32.572Z,100901.94
2023-05-09T17:03:59.622Z,100889.44
2023-05-09T17:06:26.413Z,100894.41
2023-05-09T17:08:53.262Z,100888.81
2023-05-09T17:11:20.107Z,100894.16
2023-05-09T17:13:47.087Z,100888.81
2023-05-09T17:16:15.239Z,100889.50
2023-05-09T17:18:41.960Z,100879.06
2023-05-09T17:21:08.703Z,100886.13
2023-05-09T17:23:35.510Z,100874.47
2023-05-09T17:26:02.445Z,100875.69
2023-05-09T17:28:29.596Z,100875.53
2023-05-09T17:30:56.395Z,100875.94
2023-05-09T17:33:25.580Z,100873.78
2023-05-09T17:35:52.492Z,100868.81
2023-05-09T17:38:19.218Z,100874.16
2023-05-09T17:40:46.011Z,100867.50
2023-05-09T17:43:12.757Z,100866.78
2023-05-09T17:45:39.827Z,100869.59
2023-05-09T17:48:07.003Z,100869.38
2023-05-09T17:50:35.295Z,100871.22
2023-05-09T17:53:02.198Z,100873.28
2023-05-09T17:55:28.873Z,100872.44
2023-05-09T17:57:55.681Z,100870.88
2023-05-09T18:00:22.663Z,100863.56
2023-05-09T18:02:49.415Z,100870.13
2023-05-09T18:05:16.245Z,100868.81
2023-05-09T18:07:45.048Z,100861.06
2023-05-09T18:10:11.935Z,100872.72
2023-05-09T18:12:38.681Z,100866.78
2023-05-09T18:15:07.739Z,100871.25
2023-05-09T18:17:34.588Z,100865.09
2023-05-09T18:20:01.402Z,100864.63
2023-05-09T18:22:28.234Z,100877.72
2023-05-09T18:24:56.360Z,100883.94
2023-05-09T18:27:23.101Z,100876.63
2023-05-09T18:29:49.871Z,100874.00
2023-05-09T18:32:16.711Z,100875.94
2023-05-09T18:34:43.601Z,100871.78
2023-05-09T18:37:10.406Z,100878.63
2023-05-09T18:39:37.176Z,100877.03
2023-05-09T18:42:05.539Z,100878.38
2023-05-09T18:44:32.254Z,100873.78
2023-05-09T18:46:59.068Z,100869.66
2023-05-09T18:49:26.367Z,100874.50
2023-05-09T18:51:53.152Z,100883.63
2023-05-09T18:54:20.208Z,100880.09
2023-05-09T18:56:46.880Z,100882.63
2023-05-09T18:59:15.133Z,100881.78
2023-05-09T19:01:41.876Z,100874.25
2023-05-09T19:04:08.741Z,100873.75
2023-05-09T19:06:35.659Z,100877.03
2023-05-09T19:09:07.624Z,100873.63
2023-05-09T19:11:35.397Z,100874.72
2023-05-09T19:14:02.687Z,100874.72
2023-05-09T19:16:31.154Z,100879.19
2023-05-09T19:18:58.873Z,100880.06
2023-05-09T19:21:26.167Z,100881.38
2023-05-09T19:23:52.958Z,100875.19
2023-05-09T19:26:20.092Z,100885.88
2023-05-09T19:28:47.292Z,100884.88
2023-05-09T19:31:14.915Z,100889.25
2023-05-09T19:33:44.066Z,100897.38
2023-05-09T19:36:11.154Z,100886.19
2023-05-09T19:38:38.079Z,100895.31
2023-05-09T19:41:04.788Z,100902.81
2023-05-09T19:43:32.633Z,100893.81
2023-05-09T19:45:59.515Z,100902.06
2023-05-09T19:48:26.321Z,100899.41
2023-05-09T19:50:56.814Z,100907.53
2023-05-09T19:53:23.579Z,100899.63
2023-05-09T19:55:50.297Z,100904.00
2023-05-09T19:58:17.706Z,100914.63
2023-05-09T20:00:44.860Z,100916.44
2023-05-09T20:03:11.804Z,100923.81
2023-05-09T20:08:24.373Z,100923.75
2023-05-09T20:10:51.159Z,100922.78
2023-05-09T20:13:17.959Z,100926.66
2023-05-09T20:15:44.685Z,100929.19
2023-05-09T20:18:11.754Z,100925.78
2023-05-09T20:20:38.743Z,100923.47
2023-05-09T20:23:05.559Z,100922.78
2023-05-09T20:25:33.682Z,100923.00
2023-05-09T20:28:00.587Z,100927.16
2023-05-09T20:30:27.565Z,100933.47
2023-05-09T20:32:54.357Z,100931.75
2023-05-09T20:35:21.283Z,100927.03
2023-05-09T20:37:48.040Z,100926.94
2023-05-09T20:40:15.205Z,100926.94
2023-05-09T20:42:43.897Z,100923.41
2023-05-09T20:45:10.752Z,100938.59
2023-05-09T20:47:37.457Z,100930.13
2023-05-09T20:50:04.740Z,100931.81
2023-05-09T20:52:31.416Z,100924.66
2023-05-09T20:54:58.180Z,100923.00
2023-05-09T20:57:24.874Z,100929.78
2023-05-09T20:59:53.085Z,100936.47
2023-05-09T21:02:19.925Z,100936.31
2023-05-09T21:04:46.611Z,100937.16
2023-05-09T21:07:13.532Z,100937.38
2023-05-09T21:09:40.917Z,100941.97
2023-05-09T21:12:10.501Z,100936.84
2023-05-09T21:14:37.842Z,100939.63
2023-05-09T21:17:06.239Z,100933.88
2023-05-09T21:19:33.158Z,100935.34
2023-05-09T21:21:59.903Z,100935.53
2023-05-09T21:24:26.929Z,100934.81
2023-05-09T21:26:53.624Z,100940.38
2023-05-09T21:29:20.318Z,100939.91
2023-05-09T21:31:47.005Z,100936.00
2023-05-09T21:34:15.075Z,100933.91
2023-05-09T21:36:41.763Z,100937.63
2023-05-09T21:39:08.641Z,100940.50
2023-05-09T21:41:35.750Z,100939.06
2023-05-09T21:44:02.754Z,100930.44
2023-05-09T21:46:31.455Z,100942.56
2023-05-09T21:48:58.232Z,100933.84
2023-05-09T21:51:27.024Z,100936.16
2023-05-09T21:53:53.809Z,100933.72
2023-05-09T21:56:20.759Z,100926.06
2023-05-09T21:58:47.616Z,100935.63
2023-05-09T22:01:15.664Z,100933.72
2023-05-09T22:03:43.193Z,100929.13
2023-05-09T22:06:09.946Z,100927.56
2023-05-09T22:08:38.118Z,100932.53
2023-05-09T22:11:04.833Z,100927.19
2023-05-09T22:13:31.506Z,100912.41
2023-05-09T22:15:58.179Z,100922.41
2023-05-09T22:18:24.907Z,100922.16
2023-05-09T22:20:51.596Z,100926.66
2023-05-09T22:23:18.323Z,100926.53
2023-05-09T22:25:46.430Z,100923.88
2023-05-09T22:28:13.107Z,100922.41
2023-05-09T22:30:39.862Z,100927.50
2023-05-09T22:33:06.727Z,100928.69
2023-05-09T22:35:33.566Z,100929.31
2023-05-09T22:38:00.298Z,100929.44
2023-05-09T22:40:27.064Z,100927.72
2023-05-09T22:42:55.118Z,100926.88
2023-05-09T22:45:21.984Z,100926.00
2023-05-09T22:47:48.802Z,100924.09
2023-05-09T22:50:15.905Z,100924.44
2023-05-09T22:52:42.801Z,100925.28
2023-05-09T22:55:10.136Z,100917.78
2023-05-09T22:57:36.822Z,100918.03
2023-05-09T23:00:06.382Z,100919.34
2023-05-09T23:02:33.311Z,100913.38
2023-05-09T23:05:00.169Z,100914.09
2023-05-09T23:07:26.859Z,100912.81
2023-05-09T23:09:53.597Z,100907.81
2023-05-09T23:12:20.426Z,100903.22
2023-05-09T23:14:47.140Z,100905.06
2023-05-09T23:17:15.245Z,100903.22
2023-05-09T23:19:42.109Z,100904.59
2023-05-09T23:22:08.944Z,100914.09
2023-05-09T23:24:35.700Z,100904.19
2023-05-09T23:27:02.510Z,100898.56
2023-05-09T23:29:29.320Z,100903.41
2023-05-09T23:31:56.168Z,100904.56
2023-05-09T23:34:24.261Z,100900.44
2023-05-09T23:36:51.051Z,100913.53
2023-05-09T23:39:17.772Z,100919.84
2023-05-09T23:41:44.524Z,100915.44
2023-05-09T23:44:11.452Z,100923.31
2023-05-09T23:46:38.197Z,100925.16
2023-05-09T23:49:04.994Z,100921.72
2023-05-09T23:51:33.220Z,100917.50
2023-05-09T23:54:00.169Z,100913.97
2023-05-09T23:56:26.927Z,100916.19
2023-05-09T23:58:53.745Z,100916.41
